Time;durP1;ratioP1;P1;durP2;ratioP2;P2;SDS_P1;SDS_P2;PMS_P1;PMS_P2;Temp;Humidity;BMP_temperature;BMP_pressure;BME280_temperature;BME280_humidity;BME280_pressure;Samples;Min_cycle;Max_cycle;Signal;HPM_P1;HPM_P2
2022/09/26 00:02:05;;;;;;;4.15;1.30;;;10.90;99.90;;;;;;4889590;29;20125;-83
2022/09/26 00:04:32;;;;;;;3.53;1.25;;;12.00;99.90;;;;;;4904311;28;20560;-82
2022/09/26 00:06:58;;;;;;;4.03;1.15;;;11.80;99.90;;;;;;4919543;28;20124;-82
2022/09/26 00:09:25;;;;;;;9.57;1.63;;;11.00;99.90;;;;;;4914757;28;20123;-81
2022/09/26 00:11:51;;;;;;;4.50;1.33;;;10.90;99.90;;;;;;4906378;28;20056;-82
2022/09/26 00:14:28;;;;;;;4.38;1.52;;;11.00;99.90;;;;;;4916794;28;20500;-83
2022/09/26 00:16:54;;;;;;;5.07;1.30;;;11.50;99.90;;;;;;4902824;28;20495;-82
2022/09/26 00:19:20;;;;;;;2.75;1.15;;;11.00;99.90;;;;;;4903941;28;20039;-82
2022/09/26 00:21:46;;;;;;;2.15;1.40;;;11.00;99.90;;;;;;4905253;28;20256;-82
2022/09/26 00:24:13;;;;;;;4.43;1.20;;;11.50;99.90;;;;;;4911654;29;20155;-81
2022/09/26 00:26:38;;;;;;;4.13;1.58;;;11.00;99.90;;;;;;4894116;29;20044;-84
2022/09/26 00:29:08;;;;;;;5.05;1.30;;;12.20;99.90;;;;;;4909955;29;20024;-81
2022/09/26 00:31:40;;;;;;;4.45;1.40;;;12.70;99.90;;;;;;4940783;28;20117;-82
2022/09/26 00:34:06;;;;;;;4.88;1.20;;;11.00;99.90;;;;;;4894254;29;20475;-82
2022/09/26 00:36:32;;;;;;;4.75;1.73;;;11.80;99.90;;;;;;4894740;29;20098;-81
2022/09/26 00:38:58;;;;;;;4.78;1.50;;;11.00;99.90;;;;;;4909196;29;20051;-81
2022/09/26 00:41:24;;;;;;;4.03;1.00;;;11.00;99.90;;;;;;4910194;28;20045;-81
2022/09/26 00:43:55;;;;;;;7.65;1.15;;;11.10;99.90;;;;;;4909163;28;20155;-81
2022/09/26 00:46:42;;;;;;;6.07;1.60;;;11.00;99.90;;;;;;4906895;28;20526;-82
2022/09/26 00:49:24;;;;;;;4.95;1.23;;;11.00;99.90;;;;;;4908767;29;20048;-81
2022/09/26 00:52:12;;;;;;;3.80;1.15;;;11.00;99.90;;;;;;4910020;29;20040;-81
2022/09/26 00:54:44;;;;;;;2.15;1.00;;;11.00;99.90;;;;;;4908807;28;20040;-82
2022/09/26 00:57:21;;;;;;;2.88;1.10;;;12.00;99.90;;;;;;4908469;28;20036;-81
2022/09/26 00:59:55;;;;;;;2.65;1.40;;;11.00;99.90;;;;;;4906351;29;20048;-83
2022/09/26 01:02:24;;;;;;;3.47;1.10;;;11.00;99.90;;;;;;4892170;29;20452;-81
2022/09/26 01:04:51;;;;;;;6.60;1.40;;;11.00;99.90;;;;;;4904939;28;20120;-81
2022/09/26 01:07:19;;;;;;;3.75;1.02;;;11.70;99.90;;;;;;4907915;28;20177;-81
2022/09/26 01:09:46;;;;;;;5.03;1.52;;;11.80;99.90;;;;;;4907452;28;20143;-85
2022/09/26 01:12:13;;;;;;;6.85;1.60;;;11.00;99.90;;;;;;4899488;28;20160;-87
2022/09/26 01:14:40;;;;;;;4.45;1.20;;;11.00;99.90;;;;;;4909806;28;20044;-84
2022/09/26 01:17:07;;;;;;;2.53;1.17;;;11.00;99.90;;;;;;4907451;29;20597;-84
2022/09/26 01:19:48;;;;;;;7.70;1.33;;;11.00;99.90;;;;;;4905983;28;20099;-84
2022/09/26 01:22:24;;;;;;;3.05;1.48;;;11.00;99.90;;;;;;4900782;29;20463;-83
2022/09/26 01:25:08;;;;;;;5.65;1.35;;;11.00;99.90;;;;;;4906268;28;20046;-82
2022/09/26 01:28:04;;;;;;;2.78;1.25;;;11.00;99.90;;;;;;4904518;29;20040;-81
2022/09/26 01:30:56;;;;;;;7.47;1.25;;;11.00;99.90;;;;;;4888116;28;20159;-83
2022/09/26 01:33:43;;;;;;;5.28;1.52;;;11.00;99.90;;;;;;4904032;28;20041;-83
2022/09/26 01:36:46;;;;;;;1.98;1.48;;;11.00;99.90;;;;;;4890052;29;20032;-81
2022/09/26 01:39:27;;;;;;;3.63;1.83;;;11.10;99.90;;;;;;4907491;28;20075;-82
2022/09/26 01:41:52;;;;;;;6.57;1.38;;;11.00;99.90;;;;;;4892663;28;20060;-82
2022/09/26 01:44:33;;;;;;;4.03;1.30;;;11.50;99.90;;;;;;4908919;28;20040;-82
2022/09/26 01:47:07;;;;;;;6.30;1.45;;;11.00;99.90;;;;;;4894293;29;20087;-82
2022/09/26 01:49:45;;;;;;;5.65;1.60;;;11.00;99.90;;;;;;4908771;28;20127;-81
2022/09/26 01:52:32;;;;;;;4.22;1.40;;;11.00;99.90;;;;;;4899824;29;20043;-84
2022/09/26 01:55:11;;;;;;;8.50;1.77;;;11.00;99.90;;;;;;4906314;28;20276;-83
2022/09/26 01:57:41;;;;;;;5.22;1.35;;;11.00;99.90;;;;;;4908031;29;20123;-82
2022/09/26 02:00:11;;;;;;;6.95;1.48;;;11.00;99.90;;;;;;4903298;29;20600;-82
2022/09/26 02:02:42;;;;;;;5.10;1.42;;;11.00;99.90;;;;;;4891476;28;20102;-83
2022/09/26 02:05:32;;;;;;;4.85;1.50;;;11.00;99.90;;;;;;4904084;28;20119;-83
2022/09/26 02:08:08;;;;;;;3.83;1.25;;;11.00;99.90;;;;;;4904227;28;20044;-83
2022/09/26 02:10:48;;;;;;;7.15;1.98;;;11.00;99.90;;;;;;4902346;28;20048;-81
2022/09/26 02:13:21;;;;;;;6.22;2.03;;;10.00;99.90;;;;;;4889852;28;20126;-82
2022/09/26 02:15:56;;;;;;;11.50;1.90;;;12.00;99.90;;;;;;4908234;29;20080;-81
2022/09/26 02:18:30;;;;;;;;;;;11.00;99.90;;;;;;4899435;28;20044;-82
2022/09/26 02:21:01;;;;;;;4.90;2.20;;;11.00;99.90;;;;;;4898944;28;19973;-82
2022/09/26 02:23:27;;;;;;;6.95;1.83;;;10.80;99.90;;;;;;4902607;28;20059;-81
2022/09/26 02:25:53;;;;;;;7.28;2.67;;;11.00;99.90;;;;;;4902125;28;20040;-80
2022/09/26 02:28:20;;;;;;;7.60;1.90;;;11.50;99.90;;;;;;4900960;28;20399;-80
2022/09/26 02:30:48;;;;;;;3.38;1.83;;;11.00;99.90;;;;;;4885675;28;20134;-80
2022/09/26 02:33:15;;;;;;;5.55;2.53;;;10.90;99.90;;;;;;4903814;28;20826;-80
2022/09/26 02:35:54;;;;;;;10.95;2.40;;;11.00;99.90;;;;;;4898820;28;20495;-80
2022/09/26 02:38:25;;;;;;;7.32;2.10;;;10.90;99.90;;;;;;4884625;28;20113;-82
2022/09/26 02:41:10;;;;;;;3.80;2.20;;;10.90;99.90;;;;;;4899116;28;20583;-84
2022/09/26 02:43:52;;;;;;;4.50;2.35;;;10.90;99.90;;;;;;4902115;28;20048;-80
2022/09/26 02:46:46;;;;;;;7.28;2.20;;;11.00;99.90;;;;;;4900327;28;20043;-81
2022/09/26 02:49:33;;;;;;;5.25;2.30;;;12.20;99.90;;;;;;4886977;28;20044;-80
2022/09/26 02:52:14;;;;;;;3.75;2.30;;;10.90;99.90;;;;;;4890499;29;20071;-80
2022/09/26 02:55:22;;;;;;;6.05;2.20;;;10.90;99.90;;;;;;4906835;29;20044;-82
2022/09/26 02:58:02;;;;;;;8.80;2.60;;;10.90;99.90;;;;;;4888680;28;20044;-79
2022/09/26 03:00:44;;;;;;;8.70;2.75;;;10.90;99.90;;;;;;4905820;29;20125;-80
2022/09/26 03:03:37;;;;;;;4.20;2.50;;;12.60;99.90;;;;;;4904804;28;20062;-81
2022/09/26 03:06:09;;;;;;;2.85;2.28;;;10.90;99.90;;;;;;4903797;28;20126;-81
2022/09/26 03:08:42;;;;;;;8.13;2.30;;;12.20;99.90;;;;;;4890527;28;20052;-81
2022/09/26 03:11:12;;;;;;;6.88;2.47;;;10.70;99.90;;;;;;4906667;28;20119;-80
2022/09/26 03:13:39;;;;;;;6.80;2.50;;;9.70;99.90;;;;;;4904036;28;20047;-81
2022/09/26 03:16:08;;;;;;;6.75;2.47;;;10.80;99.90;;;;;;4890182;28;20055;-82
2022/09/26 03:18:55;;;;;;;5.90;2.63;;;10.80;99.90;;;;;;4905729;28;20455;-80
2022/09/26 03:21:22;;;;;;;8.85;2.70;;;10.80;99.90;;;;;;4918985;29;20044;-82
2022/09/26 03:23:48;;;;;;;2.67;2.35;;;11.60;99.90;;;;;;4905904;28;20048;-81
2022/09/26 03:26:17;;;;;;;4.25;2.75;;;11.10;99.90;;;;;;4905154;29;20040;-84
2022/09/26 03:28:43;;;;;;;7.20;3.38;;;11.00;99.90;;;;;;4906445;28;20044;-80
2022/09/26 03:31:20;;;;;;;5.97;3.03;;;10.80;99.90;;;;;;4907019;28;20561;-80
2022/09/26 03:33:47;;;;;;;6.97;2.75;;;10.80;99.90;;;;;;4908981;28;20051;-82
2022/09/26 03:36:13;;;;;;;8.02;3.53;;;10.80;99.90;;;;;;4908269;29;20059;-82
2022/09/26 03:38:39;;;;;;;6.75;3.03;;;12.00;99.90;;;;;;4907496;29;20032;-79
2022/09/26 03:41:06;;;;;;;7.00;2.67;;;10.80;99.90;;;;;;4908246;28;20046;-79
2022/09/26 03:43:32;;;;;;;6.63;3.38;;;12.30;99.90;;;;;;4886439;28;20039;-81
2022/09/26 03:46:02;;;;;;;7.70;3.25;;;10.80;99.90;;;;;;4908460;29;20404;-79
2022/09/26 03:48:29;;;;;;;9.52;3.38;;;10.80;99.90;;;;;;4905762;28;20556;-79
2022/09/26 03:50:54;;;;;;;7.38;4.03;;;12.10;99.90;;;;;;4899246;28;20055;-79
2022/09/26 03:53:20;;;;;;;4.30;3.47;;;12.60;99.90;;;;;;4902139;28;20074;-79
2022/09/26 03:55:45;;;;;;;9.15;3.67;;;11.90;99.90;;;;;;4883577;29;20056;-79
2022/09/26 03:58:11;;;;;;;5.60;3.53;;;10.80;99.90;;;;;;4906719;28;20075;-80
2022/09/26 04:00:38;;;;;;;6.07;3.08;;;10.80;99.90;;;;;;4887902;28;20508;-81
2022/09/26 04:03:04;;;;;;;8.80;3.90;;;12.70;99.90;;;;;;4919337;28;20040;-81
2022/09/26 04:05:30;;;;;;;6.80;3.80;;;12.50;99.90;;;;;;4905249;29;20060;-81
2022/09/26 04:07:58;;;;;;;7.32;3.67;;;10.80;99.90;;;;;;4904057;28;20084;-81
2022/09/26 04:10:23;;;;;;;5.57;3.85;;;12.30;99.90;;;;;;4889383;28;20044;-81
2022/09/26 04:12:49;;;;;;;7.35;3.88;;;10.50;99.90;;;;;;4888495;29;20450;-81
2022/09/26 04:15:15;;;;;;;6.53;4.20;;;10.90;99.90;;;;;;4889476;28;20032;-83
2022/09/26 04:17:40;;;;;;;6.38;4.03;;;10.80;99.90;;;;;;4887102;28;20384;-81
2022/09/26 04:20:08;;;;;;;5.60;4.13;;;12.40;99.90;;;;;;4888686;29;20090;-82
2022/09/26 04:22:34;;;;;;;11.10;3.80;;;10.80;99.90;;;;;;4904948;29;20048;-79
2022/09/26 04:25:00;;;;;;;7.15;3.75;;;11.40;99.90;;;;;;4904478;28;20036;-78
2022/09/26 04:27:27;;;;;;;5.15;3.40;;;10.80;99.90;;;;;;4903662;29;20411;-79
2022/09/26 04:29:56;;;;;;;6.13;3.13;;;10.80;99.90;;;;;;4906489;29;20055;-79
2022/09/26 04:32:22;;;;;;;9.07;3.38;;;11.20;99.90;;;;;;4906243;29;20079;-80
2022/09/26 04:34:48;;;;;;;7.13;3.63;;;10.80;99.90;;;;;;4905876;28;20054;-78
2022/09/26 04:37:14;;;;;;;4.50;3.53;;;10.80;99.90;;;;;;4907598;29;20036;-78
2022/09/26 04:39:40;;;;;;;7.60;3.92;;;10.80;99.90;;;;;;4906579;28;20135;-82
2022/09/26 04:42:06;;;;;;;3.63;3.10;;;10.80;99.90;;;;;;4907151;28;20098;-80
2022/09/26 04:44:33;;;;;;;7.97;4.50;;;12.10;99.90;;;;;;4906405;28;20044;-80
2022/09/26 04:46:58;;;;;;;10.35;3.78;;;10.70;99.90;;;;;;4905477;28;20079;-80
2022/09/26 04:49:28;;;;;;;7.65;4.38;;;12.10;99.90;;;;;;4904564;28;20397;-80
2022/09/26 04:51:54;;;;;;;5.38;3.78;;;10.80;99.90;;;;;;4906873;28;20044;-81
2022/09/26 04:54:23;;;;;;;8.05;4.43;;;12.40;99.90;;;;;;4906697;28;20140;-82
2022/09/26 04:56:49;;;;;;;6.40;3.75;;;10.70;99.90;;;;;;4921121;28;20052;-81
2022/09/26 04:59:15;;;;;;;6.63;3.67;;;10.70;99.90;;;;;;4907462;28;20086;-78
2022/09/26 05:01:40;;;;;;;6.22;4.18;;;9.50;99.90;;;;;;4907645;28;20079;-82
2022/09/26 05:04:08;;;;;;;7.05;4.35;;;11.90;99.90;;;;;;4874799;28;20056;-80
2022/09/26 05:06:34;;;;;;;8.55;3.95;;;12.10;99.90;;;;;;4874046;28;20480;-81
2022/09/26 05:09:03;;;;;;;8.10;4.00;;;12.40;99.90;;;;;;4903554;28;20048;-79
2022/09/26 05:11:30;;;;;;;9.48;4.35;;;10.70;99.90;;;;;;4901321;28;20044;-83
2022/09/26 05:13:57;;;;;;;6.55;4.43;;;10.70;99.90;;;;;;4904624;28;20427;-80
2022/09/26 05:16:22;;;;;;;8.27;4.28;;;12.20;99.90;;;;;;4901989;28;20048;-81
2022/09/26 05:18:49;;;;;;;8.25;4.57;;;12.40;99.90;;;;;;4901998;28;20103;-82
2022/09/26 05:21:15;;;;;;;8.68;5.10;;;12.50;99.90;;;;;;4900344;28;20135;-80
2022/09/26 05:26:46;;;;;;;6.82;4.75;;;10.60;99.90;;;;;;4907882;28;20036;-81
2022/09/26 05:29:12;;;;;;;6.63;4.32;;;10.80;99.90;;;;;;4909539;28;20101;-81
2022/09/26 05:31:38;;;;;;;8.60;5.38;;;10.60;99.90;;;;;;4893441;28;20370;-82
2022/09/26 05:34:09;;;;;;;7.38;4.80;;;10.60;99.90;;;;;;4908178;28;20434;-82
2022/09/26 05:36:35;;;;;;;7.22;4.50;;;12.10;99.90;;;;;;4893959;28;20076;-81
2022/09/26 05:39:02;;;;;;;9.18;4.18;;;10.60;99.90;;;;;;4910895;28;20507;-80
2022/09/26 05:41:30;;;;;;;5.65;4.43;;;10.60;99.90;;;;;;4924039;29;20059;-82
2022/09/26 05:44:03;;;;;;;4.97;4.32;;;10.60;99.90;;;;;;4892645;28;20083;-80
2022/09/26 05:46:32;;;;;;;9.95;4.75;;;12.20;99.90;;;;;;4908479;29;20190;-81
2022/09/26 05:48:58;;;;;;;12.20;5.07;;;10.60;99.90;;;;;;4907957;28;20094;-81
2022/09/26 05:51:24;;;;;;;5.88;3.85;;;12.20;99.90;;;;;;4908394;28;20059;-81
2022/09/26 05:53:50;;;;;;;5.30;4.18;;;10.50;99.90;;;;;;4909571;29;20095;-80
2022/09/26 05:56:16;;;;;;;7.07;4.90;;;12.20;99.90;;;;;;4909343;28;20044;-81
2022/09/26 05:58:42;;;;;;;8.23;4.07;;;10.50;99.90;;;;;;4909842;29;20024;-81
2022/09/26 06:01:09;;;;;;;8.23;5.30;;;11.50;99.90;;;;;;4907857;28;20044;-81
2022/09/26 06:03:36;;;;;;;5.57;4.32;;;12.10;99.90;;;;;;4908825;29;20052;-81
2022/09/26 06:06:17;;;;;;;6.35;4.13;;;10.50;99.90;;;;;;4907161;28;20126;-81
2022/09/26 06:08:43;;;;;;;7.43;4.20;;;10.50;99.90;;;;;;4907130;28;20040;-86
2022/09/26 06:11:12;;;;;;;6.07;4.70;;;10.50;99.90;;;;;;4908945;28;20127;-86
2022/09/26 06:13:39;;;;;;;9.73;5.05;;;10.40;99.90;;;;;;4909258;28;20040;-87
2022/09/26 06:16:07;;;;;;;6.72;4.57;;;10.50;99.90;;;;;;4910930;29;20237;-85
2022/09/26 06:18:34;;;;;;;7.43;5.13;;;10.50;99.90;;;;;;4909453;29;20577;-87
2022/09/26 06:21:03;;;;;;;7.40;4.43;;;10.50;99.90;;;;;;4909580;28;20068;-86
2022/09/26 06:23:30;;;;;;;5.75;5.03;;;10.50;99.90;;;;;;4907018;28;20446;-84
2022/09/26 06:26:00;;;;;;;8.05;5.00;;;10.40;99.90;;;;;;4907879;28;20086;-85
2022/09/26 06:28:26;;;;;;;8.18;4.50;;;10.40;99.90;;;;;;4230533;28;10000729;-81
2022/09/26 06:30:56;;;;;;;7.72;4.30;;;10.40;99.90;;;;;;4907765;28;20082;-86
2022/09/26 06:33:22;;;;;;;10.23;4.85;;;10.40;99.90;;;;;;4905506;28;20051;-82
2022/09/26 06:35:58;;;;;;;6.95;4.68;;;10.40;99.90;;;;;;4886458;29;20052;-83
2022/09/26 06:38:24;;;;;;;8.98;4.82;;;11.90;99.90;;;;;;4905680;28;20132;-81
2022/09/26 06:40:53;;;;;;;7.68;4.80;;;10.30;99.90;;;;;;4907037;28;20056;-82
2022/09/26 06:43:21;;;;;;;10.48;4.60;;;11.90;99.90;;;;;;4889233;29;20056;-82
2022/09/26 06:45:52;;;;;;;9.63;4.50;;;10.30;99.90;;;;;;4892081;29;20075;-81
2022/09/26 06:48:18;;;;;;;7.80;4.07;;;10.30;99.90;;;;;;4908173;29;20116;-81
2022/09/26 06:50:49;;;;;;;6.18;4.60;;;11.40;99.90;;;;;;4890863;29;20062;-80
2022/09/26 06:53:15;;;;;;;7.22;4.78;;;10.30;99.90;;;;;;4907428;28;20041;-83
2022/09/26 06:55:43;;;;;;;6.70;5.10;;;11.20;99.90;;;;;;4902953;28;20448;-83
2022/09/26 06:58:09;;;;;;;6.88;4.40;;;10.30;99.90;;;;;;4889825;28;20044;-85
2022/09/26 07:00:35;;;;;;;7.15;4.53;;;10.30;99.90;;;;;;4891822;29;20056;-84
2022/09/26 07:03:01;;;;;;;4.50;4.10;;;10.20;99.90;;;;;;4889147;28;20056;-84
2022/09/26 07:05:26;;;;;;;14.90;7.68;;;10.40;99.90;;;;;;4903300;28;20044;-84
2022/09/26 07:07:53;;;;;;;5.13;3.92;;;10.30;99.90;;;;;;4907058;28;20056;-82
2022/09/26 07:10:20;;;;;;;7.13;3.97;;;10.30;99.90;;;;;;4911387;28;20036;-82
2022/09/26 07:12:49;;;;;;;7.93;4.38;;;10.30;99.90;;;;;;4908944;28;20048;-85
2022/09/26 07:15:17;;;;;;;11.30;4.78;;;10.20;99.90;;;;;;4906832;28;20043;-83
2022/09/26 07:17:45;;;;;;;7.15;4.55;;;10.20;99.90;;;;;;4906459;28;20110;-83
2022/09/26 07:20:16;;;;;;;8.77;5.05;;;10.20;99.90;;;;;;4907652;28;20412;-87
2022/09/26 07:22:42;;;;;;;9.20;5.32;;;10.20;99.90;;;;;;4904981;28;20091;-82
2022/09/26 07:25:10;;;;;;;7.15;4.30;;;10.20;99.90;;;;;;4888472;29;20083;-77
2022/09/26 07:27:37;;;;;;;8.52;3.72;;;10.20;99.90;;;;;;4899180;28;20040;-81
2022/09/26 07:30:08;;;;;;;6.60;3.92;;;10.20;99.90;;;;;;4900643;28;20048;-83
2022/09/26 07:32:35;;;;;;;5.75;3.72;;;10.20;99.90;;;;;;4914643;28;20449;-86
2022/09/26 07:35:04;;;;;;;6.18;3.72;;;10.20;99.90;;;;;;4890334;28;20056;-89
2022/09/26 07:37:31;;;;;;;6.13;3.63;;;10.20;99.90;;;;;;4909012;28;20097;-83
2022/09/26 07:39:56;;;;;;;8.15;4.15;;;10.20;99.90;;;;;;4909906;29;20044;-84
2022/09/26 07:42:22;;;;;;;8.77;3.03;;;11.20;99.90;;;;;;4908280;29;20051;-86
2022/09/26 07:44:48;;;;;;;7.45;3.33;;;10.30;99.90;;;;;;4907468;28;20127;-83
2022/09/26 07:50:12;;;;;;;11.30;2.95;;;10.30;99.90;;;;;;4909480;28;20052;-80
2022/09/26 07:52:46;;;;;;;9.02;3.47;;;10.30;99.90;;;;;;4884259;28;20051;-83
2022/09/26 07:55:18;;;;;;;8.05;3.10;;;11.70;99.90;;;;;;4892681;29;20414;-79
2022/09/26 07:57:48;;;;;;;6.20;3.10;;;10.40;99.90;;;;;;4907704;29;20455;-80
2022/09/26 08:00:17;;;;;;;5.15;2.55;;;10.40;99.90;;;;;;4908823;29;20118;-79
2022/09/26 08:02:45;;;;;;;7.03;3.00;;;10.40;99.90;;;;;;4907716;28;20048;-80
2022/09/26 08:05:18;;;;;;;4.63;2.60;;;11.00;99.90;;;;;;4906734;29;20052;-80
2022/09/26 08:07:48;;;;;;;4.57;2.78;;;10.50;99.90;;;;;;4907998;29;20083;-80
2022/09/26 08:10:20;;;;;;;2.85;2.33;;;10.40;99.90;;;;;;4907981;29;20055;-80
2022/09/26 08:12:46;;;;;;;7.90;2.67;;;10.50;99.90;;;;;;4916181;29;20044;-79
2022/09/26 08:15:13;;;;;;;3.75;2.40;;;10.90;99.90;;;;;;4908521;29;20373;-81
2022/09/26 08:17:38;;;;;;;5.88;2.88;;;12.30;99.90;;;;;;4906810;29;20096;-80
2022/09/26 08:20:08;;;;;;;7.78;2.42;;;10.60;99.90;;;;;;4908655;29;20403;-78
2022/09/26 08:22:33;;;;;;;7.75;2.40;;;10.60;99.90;;;;;;4891276;28;20570;-86
2022/09/26 08:24:59;;;;;;;8.85;2.63;;;11.30;99.90;;;;;;4891845;29;20135;-79
2022/09/26 08:27:25;;;;;;;4.80;2.63;;;12.10;99.90;;;;;;4906486;28;20075;-79
2022/09/26 08:29:52;;;;;;;8.65;2.50;;;10.70;99.90;;;;;;4893086;29;20052;-79
2022/09/26 08:32:19;;;;;;;3.25;2.30;;;10.70;99.90;;;;;;4933465;28;20047;-79
2022/09/26 08:34:45;;;;;;;5.85;2.25;;;11.80;99.90;;;;;;4911844;29;20059;-80
2022/09/26 08:37:12;;;;;;;12.57;5.70;;;10.70;99.90;;;;;;4895894;28;20423;-80
2022/09/26 08:39:41;;;;;;;3.42;2.30;;;12.00;99.90;;;;;;4910434;29;20492;-79
2022/09/26 08:42:36;;;;;;;5.90;2.47;;;10.70;99.90;;;;;;4909628;28;20056;-80
2022/09/26 08:46:28;;;;;;;;;;;10.70;99.90;;;;;;4905747;29;20055;-80
2022/09/26 08:48:25;;;;;;;5.45;2.13;;;12.00;99.90;;;;;;4907837;29;19927;-80
2022/09/26 08:50:58;;;;;;;5.18;2.60;;;10.70;99.90;;;;;;4905048;29;20059;-79
2022/09/26 08:53:42;;;;;;;6.18;2.97;;;10.60;99.90;;;;;;4894456;29;20067;-79
2022/09/26 08:56:19;;;;;;;7.35;2.60;;;10.80;99.90;;;;;;4911957;28;20515;-86
2022/09/26 08:58:50;;;;;;;6.82;2.38;;;11.10;99.90;;;;;;4903521;29;20051;-88
2022/09/26 09:01:26;;;;;;;7.80;2.80;;;11.80;99.90;;;;;;4911050;28;20048;-91
2022/09/26 09:03:58;;;;;;;3.85;2.20;;;10.90;99.90;;;;;;4905698;28;20074;-81
2022/09/26 09:06:27;;;;;;;6.72;2.13;;;11.90;99.90;;;;;;4925958;29;20051;-78
2022/09/26 09:08:57;;;;;;;5.68;3.47;;;10.90;99.90;;;;;;4893974;29;20052;-79
2022/09/26 09:12:06;;;;;;;6.60;3.22;;;10.90;99.90;;;;;;4909997;29;20381;-79
2022/09/26 09:14:48;;;;;;;5.70;2.28;;;12.20;99.90;;;;;;4909406;29;20405;-78
2022/09/26 09:17:40;;;;;;;4.32;1.95;;;11.00;99.90;;;;;;4890495;28;20075;-79
2022/09/26 09:20:06;;;;;;;4.50;2.17;;;11.00;99.90;;;;;;4886422;29;20066;-80
2022/09/26 09:22:50;;;;;;;4.10;2.47;;;11.00;99.90;;;;;;4909418;29;20060;-79
2022/09/26 09:26:07;;;;;;;4.47;2.33;;;11.30;99.90;;;;;;4893871;28;20048;-80
2022/09/26 09:29:11;;;;;;;6.75;2.67;;;11.10;99.90;;;;;;4909054;28;20115;-82
2022/09/26 09:31:40;;;;;;;6.10;2.00;;;11.10;99.90;;;;;;4909638;28;20051;-80
2022/09/26 09:34:14;;;;;;;3.63;2.13;;;12.70;99.90;;;;;;4910120;28;20043;-80
2022/09/26 09:36:44;;;;;;;11.47;2.43;;;12.70;99.90;;;;;;4894453;29;20079;-81
2022/09/26 09:39:20;;;;;;;4.03;2.83;;;12.80;99.90;;;;;;4910095;29;20534;-79
2022/09/26 09:41:54;;;;;;;4.80;2.60;;;12.60;99.90;;;;;;4908535;28;20051;-84
2022/09/26 09:44:42;;;;;;;3.40;2.10;;;11.20;99.90;;;;;;4909528;28;20102;-80
2022/09/26 09:47:15;;;;;;;3.72;2.13;;;11.40;99.90;;;;;;4904615;28;20094;-81
2022/09/26 09:49:48;;;;;;;6.40;1.92;;;11.30;99.90;;;;;;4909154;28;20131;-84
2022/09/26 09:52:52;;;;;;;9.00;3.42;;;11.30;99.90;;;;;;4908802;28;20098;-78
2022/09/26 09:55:42;;;;;;;4.88;2.45;;;11.30;99.90;;;;;;4920306;28;20045;-80
2022/09/26 09:58:32;;;;;;;8.10;3.20;;;11.30;99.90;;;;;;4905389;29;20500;-81
2022/09/26 10:01:25;;;;;;;7.40;3.60;;;11.20;99.90;;;;;;4909798;29;20060;-79
2022/09/26 10:04:05;;;;;;;9.40;4.32;;;11.10;99.90;;;;;;4904915;28;20048;-80
2022/09/26 10:06:31;;;;;;;8.73;3.80;;;11.10;99.90;;;;;;4909692;29;20110;-80
2022/09/26 10:08:59;;;;;;;11.05;3.33;;;11.20;99.90;;;;;;4892875;29;20511;-82
2022/09/26 10:11:33;;;;;;;5.70;3.17;;;11.20;99.90;;;;;;4909042;29;20052;-81
2022/09/26 10:14:03;;;;;;;8.80;4.00;;;11.20;99.90;;;;;;4902252;29;20040;-80
2022/09/26 10:16:30;;;;;;;8.70;4.22;;;12.70;99.90;;;;;;4892737;28;20132;-80
2022/09/26 10:19:07;;;;;;;3.65;2.92;;;12.30;99.90;;;;;;4909680;29;20044;-81
2022/09/26 10:21:38;;;;;;;10.85;3.72;;;11.40;99.90;;;;;;4908727;28;20106;-81
2022/09/26 10:24:06;;;;;;;6.90;4.00;;;12.00;99.90;;;;;;4908521;29;20050;-80
2022/09/26 10:26:38;;;;;;;7.13;5.53;;;11.10;99.90;;;;;;4910691;29;20044;-80
2022/09/26 10:29:23;;;;;;;8.00;4.10;;;12.40;99.90;;;;;;4893107;28;20044;-84
2022/09/26 10:31:59;;;;;;;10.80;3.88;;;11.10;99.90;;;;;;4908717;29;20055;-81
2022/09/26 10:34:27;;;;;;;7.38;3.38;;;11.80;99.90;;;;;;4919334;29;20049;-80
2022/09/26 10:36:54;;;;;;;4.78;4.13;;;11.70;99.90;;;;;;4908462;29;20079;-80
2022/09/26 10:42:23;;;;;;;9.02;4.68;;;11.50;99.90;;;;;;4904519;29;20056;-80
2022/09/26 10:44:49;;;;;;;11.98;6.88;;;11.40;99.90;;;;;;4907984;28;20570;-80
2022/09/26 10:47:22;;;;;;;7.55;4.50;;;11.10;99.90;;;;;;4893456;29;20036;-79
2022/09/26 10:49:58;;;;;;;7.20;4.05;;;11.90;99.90;;;;;;4910294;28;20051;-80
2022/09/26 10:52:33;;;;;;;8.02;3.72;;;11.10;99.90;;;;;;4892222;28;20048;-80
2022/09/26 10:55:04;;;;;;;5.43;4.38;;;11.10;99.90;;;;;;4906765;29;20044;-81
2022/09/26 10:57:48;;;;;;;6.43;4.15;;;12.60;99.90;;;;;;4908162;28;20434;-81
2022/09/26 11:00:35;;;;;;;6.03;3.72;;;11.10;99.90;;;;;;4921945;29;20574;-81
2022/09/26 11:03:04;;;;;;;5.82;4.25;;;11.20;99.90;;;;;;4885856;28;20114;-80
2022/09/26 11:05:56;;;;;;;8.75;4.25;;;12.30;99.90;;;;;;4907536;29;20067;-81
2022/09/26 11:08:30;;;;;;;5.80;3.15;;;11.10;99.90;;;;;;4888364;28;20043;-84
2022/09/26 11:10:57;;;;;;;;;;;11.10;99.90;;;;;;4909343;29;20043;-83
2022/09/26 11:13:46;;;;;;;7.95;3.55;;;11.30;99.90;;;;;;4728414;28;10000724;-80
2022/09/26 11:16:18;;;;;;;5.80;3.47;;;11.10;99.90;;;;;;4906824;29;20565;-82
2022/09/26 11:18:59;;;;;;;9.77;3.60;;;11.10;99.90;;;;;;4906646;28;20078;-82
2022/09/26 11:21:40;;;;;;;4.53;3.25;;;11.20;99.90;;;;;;4905225;29;20114;-81
2022/09/26 11:24:36;;;;;;;5.78;3.70;;;11.10;99.90;;;;;;4903786;28;20269;-80
2022/09/26 11:27:20;;;;;;;9.70;3.95;;;11.20;99.90;;;;;;4899870;29;20047;-80
2022/09/26 11:29:57;;;;;;;4.35;3.17;;;11.20;99.90;;;;;;4890342;29;20135;-81
2022/09/26 11:32:31;;;;;;;8.77;3.55;;;11.20;99.90;;;;;;4907519;28;20804;-83
2022/09/26 11:35:01;;;;;;;5.15;3.45;;;11.30;99.90;;;;;;4906640;28;20494;-80
2022/09/26 11:37:39;;;;;;;3.75;3.03;;;11.20;99.90;;;;;;4905629;28;20040;-82
2022/09/26 11:40:23;;;;;;;5.05;3.38;;;11.30;99.90;;;;;;4900232;28;20044;-81
2022/09/26 11:43:12;;;;;;;5.85;3.58;;;11.20;99.90;;;;;;4890357;28;20499;-82
2022/09/26 11:45:55;;;;;;;6.07;3.45;;;11.30;99.90;;;;;;4906382;29;20072;-82
2022/09/26 11:48:49;;;;;;;4.07;3.65;;;11.30;99.90;;;;;;4900460;28;20048;-81
2022/09/26 11:51:36;;;;;;;5.63;3.00;;;11.30;99.90;;;;;;4886329;29;20499;-80
2022/09/26 11:54:26;;;;;;;5.63;3.50;;;11.30;99.90;;;;;;4889290;29;20072;-86
2022/09/26 11:57:25;;;;;;;11.40;8.45;;;11.30;99.90;;;;;;4904889;29;20127;-79
2022/09/26 12:00:01;;;;;;;5.32;3.75;;;11.30;99.90;;;;;;4890871;28;20139;-81
2022/09/26 12:03:04;;;;;;;3.80;3.50;;;11.40;99.90;;;;;;4905031;28;20067;-83
2022/09/26 12:05:49;;;;;;;5.32;3.60;;;11.40;99.90;;;;;;4903322;28;20055;-82
2022/09/26 12:08:40;;;;;;;5.72;3.72;;;11.40;99.90;;;;;;4893647;29;20079;-80
2022/09/26 12:11:36;;;;;;;4.28;3.60;;;11.40;99.90;;;;;;4899869;28;20083;-81
2022/09/26 12:14:39;;;;;;;5.43;4.13;;;11.40;99.90;;;;;;4892382;28;20044;-81
2022/09/26 12:17:35;;;;;;;3.63;3.33;;;11.50;99.90;;;;;;4892586;29;20044;-83
2022/09/26 12:20:20;;;;;;;4.22;3.83;;;11.50;99.90;;;;;;4883383;28;20408;-81
2022/09/26 12:23:06;;;;;;;6.22;3.95;;;11.40;99.90;;;;;;4911903;28;20101;-79
2022/09/26 12:25:54;;;;;;;3.53;3.20;;;11.60;99.90;;;;;;4908857;28;20044;-79
2022/09/26 12:28:54;;;;;;;4.55;3.22;;;11.50;99.90;;;;;;4907471;29;20150;-82
2022/09/26 12:31:25;;;;;;;4.13;3.10;;;11.50;99.90;;;;;;4903734;28;20056;-80
2022/09/26 12:34:21;;;;;;;5.35;3.97;;;11.50;99.90;;;;;;4911668;28;20592;-81
2022/09/26 12:37:15;;;;;;;5.30;3.38;;;11.50;99.90;;;;;;4903222;28;20135;-81
2022/09/26 12:39:53;;;;;;;5.63;3.72;;;11.60;99.90;;;;;;4907870;28;20052;-81
2022/09/26 12:42:48;;;;;;;10.13;6.28;;;11.70;99.90;;;;;;4965643;28;20081;-81
2022/09/26 12:45:25;;;;;;;;;;;11.50;99.90;;;;;;4903006;28;20538;-80
2022/09/26 12:48:06;;;;;;;5.13;3.33;;;11.60;99.90;;;;;;4912112;28;20045;-80
2022/09/26 12:50:56;;;;;;;5.00;3.60;;;11.60;99.90;;;;;;4910586;29;20047;-80
2022/09/26 12:53:45;;;;;;;5.32;4.03;;;11.60;99.90;;;;;;4910393;28;20048;-81
2022/09/26 12:56:21;;;;;;;5.72;3.80;;;11.70;99.90;;;;;;4889874;29;20044;-80
2022/09/26 12:58:54;;;;;;;8.90;4.03;;;11.80;99.90;;;;;;4909902;28;20048;-80
2022/09/26 13:01:26;;;;;;;3.92;3.63;;;11.70;99.90;;;;;;4910311;29;20048;-84
2022/09/26 13:04:40;;;;;;;4.00;3.70;;;11.70;99.90;;;;;;4911924;28;20055;-83
2022/09/26 13:07:25;;;;;;;4.30;3.90;;;11.80;99.90;;;;;;4909526;29;20127;-80
2022/09/26 13:09:56;;;;;;;3.40;3.10;;;11.80;99.90;;;;;;4894560;28;20504;-80
2022/09/26 13:12:41;;;;;;;4.88;3.03;;;11.80;99.90;;;;;;4909739;29;20500;-81
2022/09/26 13:15:14;;;;;;;3.58;3.00;;;11.80;99.90;;;;;;4909749;28;20052;-81
2022/09/26 13:17:44;;;;;;;3.65;2.90;;;11.90;99.90;;;;;;4910273;29;20444;-80
2022/09/26 13:20:17;;;;;;;3.10;2.60;;;11.90;99.90;;;;;;4909295;29;20415;-82
2022/09/26 13:22:57;;;;;;;4.38;2.80;;;11.90;99.90;;;;;;4909678;28;20083;-80
2022/09/26 13:25:38;;;;;;;2.67;2.47;;;11.90;99.90;;;;;;4907487;29;20036;-83
2022/09/26 13:28:10;;;;;;;5.55;3.10;;;11.90;99.90;;;;;;4909417;28;20467;-82
2022/09/26 13:30:40;;;;;;;5.97;3.28;;;12.70;99.90;;;;;;4911144;29;20048;-81
2022/09/26 13:33:19;;;;;;;2.53;1.98;;;11.90;99.90;;;;;;4908878;28;20578;-80